Terminal Aerodrome Forecast
Issued by NWS

Home | Current Version | Previous Version | Text Only | Print | Product List | Glossary On
Versions: 1 2 3 4 5 6 7 8 9 10 11 12 13 14 15 16 17 18 19 20
000
FTUS43 KAPX 281139
TAFPLN
TAF
KPLN 281139Z 2812/2912 10003KT P6SM BKN070 BKN200
     FM281500 22010G19KT P6SM BKN070 BKN200
     FM281800 21011G21KT P6SM -SHRA BKN090
     FM282300 17009KT 2SM SHRA OVC015 WS020/19035KT
     FM290300 16009KT 2SM SHRA BR VCTS OVC008CB WS020/19040KT
     FM290600 16008KT 2SM SHRA BR OVC008 WS020/19040KT
     FM290800 19008KT 2SM SHRA BR OVC008 WS020/19040KT=

USA.gov is the U.S. government's official web portal to all federal, state and local government web resources and services.